LQSA/SJJ METAR and TAF weather

Enter ICAO airport designator
Station Type Date Time Source
LQSA METAR 2020/10/29 16:30 UTC NOAA

LQSA 291630Z VRB01KT CAVOK 11/09 Q1018


Station Type Date Time Source
LQSA Decoded METAR 2020/10/29 16:30 UTC NOAA

Sarajevo, Bosnia and Herzegovina (LQSA) 43-49N 018-20E 510M
Oct 29, 2020 - 12:30 PM EDT / 2020.10.29 1630 UTC
Wind: Variable at 1 MPH (1 KT):0
Visibility: greater than 7 mile(s):0
Temperature: 51 F (11 C)
Dew Point: 48 F (9 C)
Relative Humidity: 87%
Pressure (altimeter): 30.06 in. Hg (1018 hPa)
ob: LQSA 291630Z VRB01KT CAVOK 11/09 Q1018
cycle: 16

Station Type Date Time Source
LQSA TAF 2020/10/29 12:06 UTC NOAA

TAF TAF LQSA 291100Z 2912/3012 32005KT 9999 SCT040 TX17/2914Z TN06/3005Z PROB40
TEMPO 2918/2924 RA PROB30
TEMPO 3003/3008 2000 BR BKN004

Example: see airport list